createdAt,value
2022-10-13T00:01:33.591Z,13.40
2022-10-13T00:04:05.154Z,13.80
2022-10-13T00:06:38.639Z,11.10
2022-10-13T00:09:12.502Z,10.80
2022-10-13T00:11:49.352Z,11.60
2022-10-13T00:14:27.661Z,11.50
2022-10-13T00:17:02.870Z,13.30
2022-10-13T00:19:33.072Z,10.80
2022-10-13T00:22:10.671Z,10.80
2022-10-13T00:24:52.594Z,11.30
2022-10-13T00:27:29.022Z,11.90
2022-10-13T00:29:58.002Z,10.80
2022-10-13T00:32:33.549Z,14.80
2022-10-13T00:35:09.022Z,10.20
2022-10-13T00:38:06.070Z,10.40
2022-10-13T00:40:47.781Z,12.40
2022-10-13T00:43:25.104Z,11.60
2022-10-13T00:45:54.943Z,13.30
2022-10-13T00:49:07.777Z,11.70
2022-10-13T00:51:48.130Z,10.50
2022-10-13T00:54:25.783Z,9.80
2022-10-13T00:57:05.321Z,11.90
2022-10-13T00:59:42.622Z,11.80
2022-10-13T01:02:19.968Z,9.30
2022-10-13T01:04:58.352Z,14.70
2022-10-13T01:07:36.381Z,11.40
2022-10-13T01:10:11.502Z,14.40
2022-10-13T01:13:10.043Z,14.70
2022-10-13T01:15:57.551Z,14.70
2022-10-13T01:18:50.812Z,12.80
2022-10-13T01:21:40.721Z,9.80
2022-10-13T01:24:27.481Z,14.00
2022-10-13T01:27:28.163Z,14.90
2022-10-13T01:30:20.943Z,7.80
2022-10-13T01:33:42.304Z,9.00
2022-10-13T01:37:02.261Z,10.40
2022-10-13T01:39:56.332Z,11.90
2022-10-13T01:43:02.403Z,9.90
2022-10-13T01:45:49.082Z,12.30
2022-10-13T01:48:26.630Z,13.30
2022-10-13T01:51:11.132Z,14.30
2022-10-13T01:53:48.243Z,12.50
2022-10-13T01:56:25.262Z,10.70
2022-10-13T01:59:05.625Z,12.90
2022-10-13T02:02:01.958Z,15.80
2022-10-13T02:04:54.461Z,15.90
2022-10-13T02:07:49.987Z,15.70
2022-10-13T02:10:42.061Z,15.00
2022-10-13T02:13:27.260Z,14.40
2022-10-13T02:16:00.421Z,15.10
2022-10-13T02:18:59.442Z,16.20
2022-10-13T02:21:36.884Z,16.60
2022-10-13T02:24:11.713Z,17.20
2022-10-13T02:26:43.102Z,13.60
2022-10-13T02:29:19.497Z,13.60
2022-10-13T02:31:56.182Z,12.60
2022-10-13T02:34:25.051Z,16.40
2022-10-13T02:36:58.625Z,16.00
2022-10-13T02:39:34.263Z,17.50
2022-10-13T02:42:08.183Z,13.90
2022-10-13T02:44:45.324Z,12.00
2022-10-13T02:47:20.530Z,12.10
2022-10-13T02:49:54.272Z,11.00
2022-10-13T02:52:23.242Z,14.80
2022-10-13T02:54:57.463Z,14.90
2022-10-13T02:57:31.043Z,9.70
2022-10-13T03:00:06.102Z,11.60
2022-10-13T03:02:40.610Z,13.10
2022-10-13T03:05:17.623Z,16.70
2022-10-13T03:07:51.227Z,13.50
2022-10-13T03:10:48.030Z,14.40
2022-10-13T03:13:22.442Z,11.90
2022-10-13T03:15:56.207Z,11.90
2022-10-13T03:18:25.203Z,12.00
2022-10-13T03:21:04.542Z,16.50
2022-10-13T03:23:41.302Z,14.90
2022-10-13T03:26:16.043Z,14.40
2022-10-13T03:28:49.573Z,13.20
2022-10-13T03:31:23.542Z,10.30
2022-10-13T03:33:57.290Z,16.20
2022-10-13T03:36:30.324Z,15.30
2022-10-13T03:39:03.665Z,14.00
2022-10-13T03:41:37.210Z,12.30
2022-10-13T03:44:13.713Z,13.40
2022-10-13T03:46:42.543Z,12.00
2022-10-13T03:49:12.583Z,11.60
2022-10-13T03:51:46.568Z,17.00
2022-10-13T03:54:21.086Z,13.20
2022-10-13T03:56:49.692Z,11.40
2022-10-13T03:59:19.062Z,14.20
2022-10-13T04:01:47.921Z,14.00
2022-10-13T04:04:23.127Z,17.50
2022-10-13T04:06:51.823Z,19.20
2022-10-13T04:09:20.403Z,10.20
2022-10-13T04:11:53.642Z,13.80
2022-10-13T04:14:27.103Z,13.10
2022-10-13T04:16:55.823Z,20.20
2022-10-13T04:19:24.664Z,12.00
2022-10-13T04:21:53.345Z,10.00
2022-10-13T04:24:22.143Z,12.10
2022-10-13T04:26:50.842Z,13.20
2022-10-13T04:29:24.386Z,15.20
2022-10-13T04:33:59.584Z,13.30
2022-10-13T04:36:28.571Z,12.60
2022-10-13T04:38:58.303Z,18.40
2022-10-13T04:41:32.123Z,18.60
2022-10-13T04:44:02.883Z,18.30
2022-10-13T04:46:31.645Z,16.20
2022-10-13T04:49:00.479Z,19.30
2022-10-13T04:51:34.202Z,14.30
2022-10-13T04:54:08.229Z,16.50
2022-10-13T04:56:37.365Z,21.40
2022-10-13T04:59:14.086Z,18.20
2022-10-13T05:01:43.263Z,16.00
2022-10-13T05:04:12.462Z,14.60
2022-10-13T05:09:32.763Z,21.90
2022-10-13T05:12:01.560Z,17.80
2022-10-13T05:14:31.525Z,12.80
2022-10-13T05:17:00.263Z,13.50
2022-10-13T05:19:29.344Z,15.50
2022-10-13T05:21:58.125Z,22.30
2022-10-13T05:24:36.964Z,20.60
2022-10-13T05:27:13.983Z,15.30
2022-10-13T05:29:43.243Z,20.90
2022-10-13T05:32:12.122Z,13.50
2022-10-13T05:34:40.823Z,19.50
2022-10-13T05:37:09.824Z,19.10
2022-10-13T05:39:38.803Z,20.70
2022-10-13T05:42:07.504Z,15.40
2022-10-13T05:44:37.883Z,16.60
2022-10-13T05:47:07.748Z,19.30
2022-10-13T05:49:40.203Z,22.00
2022-10-13T05:52:13.204Z,19.80
2022-10-13T05:54:48.782Z,14.50
2022-10-13T05:57:22.146Z,14.20
2022-10-13T06:00:06.904Z,20.40
2022-10-13T06:02:54.445Z,19.80
2022-10-13T06:05:27.983Z,20.50
2022-10-13T06:07:56.831Z,14.40
2022-10-13T06:10:26.731Z,20.20
2022-10-13T06:12:55.544Z,19.80
2022-10-13T06:15:27.947Z,20.90
2022-10-13T06:17:57.301Z,18.80
2022-10-13T06:20:27.923Z,18.60
2022-10-13T06:22:57.584Z,20.70
2022-10-13T06:25:26.646Z,17.90
2022-10-13T06:27:57.583Z,23.10
2022-10-13T06:30:27.363Z,23.10
2022-10-13T06:32:56.624Z,18.50
2022-10-13T06:35:26.203Z,17.80
2022-10-13T06:37:55.283Z,15.10
2022-10-13T06:40:24.016Z,14.40
2022-10-13T06:42:52.953Z,20.70
2022-10-13T06:45:21.663Z,23.00
2022-10-13T06:47:50.142Z,21.00
2022-10-13T06:50:18.922Z,21.20
2022-10-13T06:52:47.822Z,20.20
2022-10-13T06:55:20.403Z,22.20
2022-10-13T06:57:50.326Z,25.00
2022-10-13T07:00:22.823Z,19.00
2022-10-13T07:02:53.124Z,22.30
2022-10-13T07:05:22.003Z,23.60
2022-10-13T07:07:54.485Z,23.50
2022-10-13T07:10:23.590Z,24.20
2022-10-13T07:12:52.372Z,22.80
2022-10-13T07:15:21.170Z,22.50
2022-10-13T07:17:50.143Z,15.40
2022-10-13T07:20:18.943Z,24.30
2022-10-13T07:22:48.044Z,25.20
2022-10-13T07:28:36.020Z,27.50
2022-10-13T07:31:16.043Z,22.50
2022-10-13T07:33:48.503Z,27.50
2022-10-13T07:36:20.219Z,27.00
2022-10-13T07:38:49.684Z,18.30
2022-10-13T07:41:18.724Z,25.10
2022-10-13T07:43:47.562Z,23.10
2022-10-13T07:46:16.363Z,24.60
2022-10-13T07:48:45.265Z,23.80
2022-10-13T07:51:14.743Z,24.00
2022-10-13T07:53:47.547Z,19.50
2022-10-13T07:56:17.471Z,22.00
2022-10-13T07:58:48.491Z,22.50
2022-10-13T08:01:18.197Z,23.80
2022-10-13T08:03:50.209Z,19.40
2022-10-13T08:06:19.753Z,19.50
2022-10-13T08:08:48.770Z,16.90
2022-10-13T08:11:18.762Z,20.90
2022-10-13T08:13:52.486Z,20.20
2022-10-13T08:16:21.493Z,20.20
2022-10-13T08:18:51.023Z,21.70
2022-10-13T08:21:57.448Z,19.20
2022-10-13T08:24:17.248Z,22.40
2022-10-13T08:26:47.582Z,14.50
2022-10-13T08:29:21.899Z,17.70
2022-10-13T08:31:55.771Z,19.10
2022-10-13T08:34:25.409Z,19.20
2022-10-13T08:36:56.893Z,19.20
2022-10-13T08:39:26.067Z,20.50
2022-10-13T08:41:58.262Z,19.40
2022-10-13T08:45:21.753Z,18.50
2022-10-13T08:47:45.883Z,20.30
2022-10-13T08:50:21.622Z,19.20
2022-10-13T08:53:06.363Z,19.80
2022-10-13T08:56:15.003Z,16.60
2022-10-13T08:58:44.462Z,19.30
2022-10-13T09:01:17.463Z,15.10
2022-10-13T09:04:04.853Z,16.80
2022-10-13T09:07:05.401Z,16.70
2022-10-13T09:09:34.363Z,16.90
2022-10-13T09:12:05.264Z,15.00
2022-10-13T09:14:40.682Z,17.10
2022-10-13T09:17:27.342Z,15.20
2022-10-13T09:20:16.979Z,16.00
2022-10-13T09:23:06.403Z,14.40
2022-10-13T09:25:51.709Z,15.70
2022-10-13T09:28:39.084Z,15.50
2022-10-13T09:31:29.159Z,16.40
2022-10-13T09:34:01.370Z,12.20
2022-10-13T09:36:31.622Z,14.80
2022-10-13T09:39:16.395Z,14.60
2022-10-13T09:41:45.346Z,16.00
2022-10-13T09:44:36.242Z,16.40
2022-10-13T09:47:05.443Z,15.70
2022-10-13T09:49:40.922Z,13.60
2022-10-13T09:52:22.657Z,13.70
2022-10-13T09:55:01.462Z,13.60
2022-10-13T09:57:49.623Z,12.00
2022-10-13T10:00:28.170Z,13.10
2022-10-13T10:03:26.736Z,13.70
2022-10-13T10:06:00.825Z,13.70
2022-10-13T10:09:03.210Z,14.60
2022-10-13T10:11:42.672Z,14.20
2022-10-13T10:14:49.039Z,11.00
2022-10-13T10:17:22.399Z,13.10
2022-10-13T10:20:23.583Z,11.00
2022-10-13T10:23:29.241Z,12.90
2022-10-13T10:26:00.511Z,13.00
2022-10-13T10:29:09.310Z,13.80
2022-10-13T10:32:24.391Z,12.70
2022-10-13T10:35:51.677Z,12.10
2022-10-13T10:38:44.515Z,12.60
2022-10-13T10:41:54.755Z,11.20
2022-10-13T10:44:34.631Z,9.40
2022-10-13T10:47:23.483Z,11.90
2022-10-13T10:50:06.282Z,11.40
2022-10-13T10:52:44.311Z,11.10
2022-10-13T10:55:36.230Z,9.90
2022-10-13T10:58:28.038Z,10.30
2022-10-13T11:01:22.217Z,10.60
2022-10-13T11:04:41.622Z,9.60
2022-10-13T11:07:25.267Z,10.60
2022-10-13T11:09:54.653Z,11.30
2022-10-13T11:12:23.500Z,10.80
2022-10-13T11:14:55.522Z,9.30
2022-10-13T11:17:33.502Z,8.70
2022-10-13T11:20:22.044Z,10.40
2022-10-13T11:23:00.234Z,9.20
2022-10-13T11:25:42.282Z,8.90
2022-10-13T11:28:43.209Z,8.40
2022-10-13T11:31:14.979Z,8.20
2022-10-13T11:33:56.883Z,7.90
2022-10-13T11:36:57.182Z,8.60
2022-10-13T11:39:28.724Z,7.30
2022-10-13T11:42:12.907Z,6.70
2022-10-13T11:45:04.986Z,7.20
2022-10-13T11:47:57.952Z,7.20
2022-10-13T11:51:23.823Z,5.70
2022-10-13T11:54:19.663Z,6.40
2022-10-13T11:56:53.865Z,6.30
2022-10-13T11:59:40.263Z,6.10
2022-10-13T12:02:16.952Z,5.50
2022-10-13T12:05:21.362Z,5.80
2022-10-13T12:07:54.602Z,5.40
2022-10-13T12:10:35.325Z,5.70
2022-10-13T12:13:05.844Z,5.30
2022-10-13T12:15:44.063Z,4.70
2022-10-13T12:18:39.509Z,6.20
2022-10-13T12:21:21.504Z,5.70
2022-10-13T12:23:52.783Z,5.50
2022-10-13T12:26:25.724Z,5.00
2022-10-13T12:29:02.711Z,5.10
2022-10-13T12:31:44.823Z,5.30
2022-10-13T12:34:35.593Z,4.60
2022-10-13T12:37:22.041Z,4.60
2022-10-13T12:39:51.734Z,4.20
2022-10-13T12:42:25.704Z,4.40
2022-10-13T12:44:56.343Z,4.80
2022-10-13T12:47:45.222Z,4.40
2022-10-13T12:50:28.070Z,3.40
2022-10-13T12:53:13.561Z,4.30
2022-10-13T12:56:01.642Z,4.40
2022-10-13T12:58:34.593Z,5.30
2022-10-13T13:01:15.541Z,4.80
2022-10-13T13:03:45.023Z,3.90
2022-10-13T13:06:16.368Z,4.20
2022-10-13T13:08:45.362Z,3.70
2022-10-13T13:11:38.343Z,3.40
2022-10-13T13:14:36.063Z,3.80
2022-10-13T13:17:12.923Z,3.40
2022-10-13T13:19:45.743Z,3.10
2022-10-13T13:22:15.469Z,3.00
2022-10-13T13:24:45.363Z,3.60
2022-10-13T13:27:33.827Z,4.10
2022-10-13T13:30:02.623Z,3.50
2022-10-13T13:32:31.524Z,3.70
2022-10-13T13:35:00.171Z,4.20
2022-10-13T13:37:34.196Z,3.50
2022-10-13T13:40:04.932Z,3.80
2022-10-13T13:42:34.936Z,3.70
2022-10-13T13:45:03.691Z,3.50
2022-10-13T13:47:32.634Z,3.90
2022-10-13T13:50:01.511Z,3.40
2022-10-13T13:52:30.515Z,3.50
2022-10-13T13:54:59.512Z,3.60
2022-10-13T13:57:28.834Z,3.50
2022-10-13T13:59:57.896Z,3.60
2022-10-13T14:02:26.895Z,4.00
2022-10-13T14:04:55.803Z,3.80
2022-10-13T14:07:24.998Z,4.00
2022-10-13T14:09:57.879Z,4.20
2022-10-13T14:12:34.587Z,3.00
2022-10-13T14:15:04.161Z,3.60
2022-10-13T14:17:33.054Z,3.90
2022-10-13T14:20:02.006Z,3.90
2022-10-13T14:22:31.133Z,3.80
2022-10-13T14:24:59.884Z,4.90
2022-10-13T14:27:28.923Z,4.80
2022-10-13T14:29:58.263Z,4.60
2022-10-13T14:32:27.804Z,5.00
2022-10-13T14:34:57.498Z,4.30
2022-10-13T14:37:30.455Z,4.10
2022-10-13T14:40:02.290Z,4.90
2022-10-13T14:42:31.084Z,4.80
2022-10-13T14:44:59.862Z,4.70
2022-10-13T14:47:28.864Z,4.40
2022-10-13T14:49:57.843Z,4.50
2022-10-13T14:52:26.943Z,4.00
2022-10-13T14:54:55.823Z,3.80
2022-10-13T14:57:26.603Z,3.60
2022-10-13T14:59:59.349Z,4.00
2022-10-13T15:02:31.125Z,4.90
2022-10-13T15:05:00.396Z,4.60
2022-10-13T15:07:29.202Z,3.10
2022-10-13T15:10:05.519Z,4.90
2022-10-13T15:12:35.591Z,4.70
2022-10-13T15:15:05.406Z,4.50
2022-10-13T15:17:34.505Z,4.50
2022-10-13T15:20:05.303Z,4.50
2022-10-13T15:22:34.704Z,4.40
2022-10-13T15:25:08.132Z,4.50
2022-10-13T15:27:42.099Z,5.60
2022-10-13T15:30:11.667Z,5.40
2022-10-13T15:32:40.663Z,5.10
2022-10-13T15:35:10.200Z,4.60
2022-10-13T15:37:38.822Z,5.70
2022-10-13T15:40:08.886Z,5.20
2022-10-13T15:42:37.642Z,5.00
2022-10-13T15:45:11.450Z,5.00
2022-10-13T15:47:40.544Z,4.40
2022-10-13T15:50:10.582Z,4.50
2022-10-13T15:52:40.779Z,4.80
2022-10-13T15:55:12.726Z,6.00
2022-10-13T15:57:41.883Z,5.40
2022-10-13T16:00:15.148Z,5.80
2022-10-13T16:02:44.933Z,4.80
2022-10-13T16:05:14.242Z,3.50
2022-10-13T16:07:43.824Z,5.10
2022-10-13T16:10:15.533Z,6.30
2022-10-13T16:24:48.083Z,5.40
2022-10-13T16:27:17.205Z,5.60
2022-10-13T16:29:45.963Z,6.00
2022-10-13T16:32:14.923Z,5.30
2022-10-13T16:34:43.843Z,5.30
2022-10-13T16:37:12.663Z,6.00
2022-10-13T16:39:43.826Z,5.20
2022-10-13T16:42:14.303Z,7.00
2022-10-13T16:44:43.109Z,6.20
2022-10-13T16:47:15.923Z,4.90
2022-10-13T16:49:47.803Z,6.10
2022-10-13T16:52:16.744Z,6.50
2022-10-13T16:54:47.202Z,6.70
2022-10-13T16:57:16.395Z,7.40
2022-10-13T16:59:45.245Z,7.20
2022-10-13T17:02:15.983Z,7.40
2022-10-13T17:04:45.104Z,6.90
2022-10-13T17:07:14.647Z,6.40
2022-10-13T17:09:43.506Z,7.70
2022-10-13T17:12:12.694Z,7.60
2022-10-13T17:14:41.643Z,6.10
2022-10-13T17:17:10.666Z,6.20
2022-10-13T17:19:40.070Z,8.60
2022-10-13T17:22:09.184Z,8.70
2022-10-13T17:24:38.383Z,9.10
2022-10-13T17:27:07.592Z,9.50
2022-10-13T17:29:36.773Z,9.20
2022-10-13T17:32:06.099Z,10.00
2022-10-13T17:34:37.102Z,11.50
2022-10-13T17:37:06.319Z,10.50
2022-10-13T17:39:35.419Z,10.60
2022-10-13T17:42:04.754Z,10.10
2022-10-13T17:44:34.265Z,10.30
2022-10-13T17:47:03.203Z,10.20
2022-10-13T17:49:31.923Z,10.50
2022-10-13T17:52:00.883Z,11.70
2022-10-13T17:54:29.764Z,12.40
2022-10-13T17:56:58.664Z,12.60
2022-10-13T17:59:27.383Z,13.60
2022-10-13T18:01:56.449Z,12.90
2022-10-13T18:04:25.646Z,12.30
2022-10-13T18:06:54.644Z,13.50
2022-10-13T18:09:24.884Z,12.50
2022-10-13T18:11:55.103Z,14.30
2022-10-13T18:14:25.625Z,13.50
2022-10-13T18:16:55.010Z,14.70
2022-10-13T18:19:23.802Z,13.10
2022-10-13T18:27:17.592Z,12.90
2022-10-13T18:29:55.888Z,15.30
2022-10-13T18:32:26.657Z,16.00
2022-10-13T18:34:56.895Z,19.50
2022-10-13T18:37:26.238Z,18.90
2022-10-13T18:39:58.858Z,18.80
2022-10-13T18:42:34.305Z,20.20
2022-10-13T18:45:07.805Z,21.10
2022-10-13T18:47:40.637Z,20.60
2022-10-13T18:50:13.695Z,20.50
2022-10-13T18:52:46.467Z,19.90
2022-10-13T18:55:19.857Z,20.20
2022-10-13T18:57:51.964Z,18.80
2022-10-13T19:00:21.477Z,19.40
2022-10-13T19:02:55.926Z,18.50
2022-10-13T19:05:32.548Z,19.60
2022-10-13T19:08:11.764Z,20.10
2022-10-13T19:10:44.933Z,18.60
2022-10-13T19:13:23.048Z,17.40
2022-10-13T19:16:06.944Z,18.90
2022-10-13T19:18:39.096Z,19.50
2022-10-13T19:21:12.035Z,21.30
2022-10-13T19:23:51.431Z,21.00
2022-10-13T19:26:36.326Z,20.50
2022-10-13T19:29:20.196Z,21.70
2022-10-13T19:31:52.856Z,20.80
2022-10-13T19:34:22.327Z,19.60
2022-10-13T19:37:15.805Z,18.50
2022-10-13T19:39:58.036Z,19.80
2022-10-13T19:42:50.423Z,19.70
2022-10-13T19:45:20.024Z,20.20
2022-10-13T19:47:48.837Z,18.50
2022-10-13T19:50:17.926Z,19.00
2022-10-13T19:52:46.517Z,18.50
2022-10-13T19:55:15.318Z,18.90
2022-10-13T19:57:44.024Z,21.80
2022-10-13T20:00:13.962Z,20.40
2022-10-13T20:02:42.728Z,23.40
2022-10-13T20:05:11.266Z,19.80
2022-10-13T20:07:39.756Z,19.50
2022-10-13T20:10:08.932Z,19.40
2022-10-13T20:12:37.437Z,20.20
2022-10-13T20:15:07.077Z,22.60
2022-10-13T20:17:36.056Z,21.50
2022-10-13T20:20:06.846Z,21.30
2022-10-13T20:22:35.607Z,20.10
2022-10-13T20:25:04.967Z,20.10
2022-10-13T20:27:33.851Z,21.60
2022-10-13T20:30:02.856Z,22.40
2022-10-13T20:32:32.056Z,22.60
2022-10-13T20:35:00.757Z,21.60
2022-10-13T20:37:29.534Z,20.80
2022-10-13T20:39:58.647Z,18.60
2022-10-13T20:42:27.626Z,19.50
2022-10-13T20:44:56.358Z,20.30
2022-10-13T20:47:24.986Z,21.00
2022-10-13T20:49:53.774Z,21.00
2022-10-13T20:52:22.485Z,19.80
2022-10-13T20:54:51.157Z,18.90
2022-10-13T20:57:19.826Z,18.00
2022-10-13T20:59:49.963Z,17.90
2022-10-13T21:02:18.656Z,18.60
2022-10-13T21:04:47.426Z,18.60
2022-10-13T21:07:16.338Z,21.40
2022-10-13T21:09:45.018Z,18.70
2022-10-13T21:12:13.589Z,19.40
2022-10-13T21:14:42.080Z,19.10
2022-10-13T21:17:10.895Z,20.10
2022-10-13T21:19:39.850Z,19.40
2022-10-13T21:22:09.176Z,21.10
2022-10-13T21:24:38.160Z,18.10
2022-10-13T21:27:06.755Z,20.70
2022-10-13T21:29:35.417Z,19.70
2022-10-13T21:32:04.616Z,20.10
2022-10-13T21:34:33.297Z,20.40
2022-10-13T21:37:02.717Z,18.70
2022-10-13T21:39:31.298Z,20.70
2022-10-13T21:41:59.989Z,20.20
2022-10-13T21:44:28.555Z,20.60
2022-10-13T21:46:57.256Z,20.90
2022-10-13T21:49:26.246Z,19.80
2022-10-13T21:51:54.836Z,19.00
2022-10-13T21:54:23.508Z,19.40
2022-10-13T21:56:51.999Z,19.90
2022-10-13T22:11:59.207Z,20.60
2022-10-13T22:19:12.968Z,17.40
2022-10-13T22:25:31.496Z,17.00
2022-10-13T22:32:17.986Z,18.00
2022-10-13T22:38:29.641Z,16.90
2022-10-13T22:42:53.316Z,16.90
2022-10-13T22:55:05.684Z,18.50
2022-10-13T22:57:54.564Z,16.10
2022-10-13T23:00:39.774Z,16.60
2022-10-13T23:03:56.681Z,16.50
2022-10-13T23:07:28.512Z,16.10
2022-10-13T23:11:05.495Z,18.60
2022-10-13T23:14:48.047Z,17.20
2022-10-13T23:17:43.200Z,18.60
2022-10-13T23:21:06.058Z,16.80
2022-10-13T23:24:29.611Z,18.20
2022-10-13T23:27:43.209Z,18.90
2022-10-13T23:30:52.599Z,19.80
2022-10-13T23:33:35.631Z,19.40
2022-10-13T23:36:23.054Z,16.00
2022-10-13T23:39:33.352Z,19.60
2022-10-13T23:43:01.602Z,20.20
2022-10-13T23:46:37.999Z,16.70
2022-10-13T23:49:44.996Z,23.30
2022-10-13T23:52:44.580Z,21.20
2022-10-13T23:55:42.494Z,18.50
2022-10-13T23:58:39.923Z,19.50
